Terminal Aerodrome Forecast
Issued by NWS Cleveland, OH

Home | Current Version | Previous Version | Text Only | Print | Product List | Glossary On
Versions: 1 2 3 4 5 6 7 8 9 10 11 12 13 14 15 16 17 18
000
FTUS41 KCLE 141100 CCA
TAFYNG
TAF COR
KYNG 141145Z 1412/1512 20003KT 2SM BR OVC005
     FM141300 20003KT 5SM BR OVC006
     FM141400 22005KT P6SM BKN010
     FM141700 22006KT P6SM VCSH BKN035
     FM142200 23008KT P6SM BKN050
      TEMPO 1423/1502 3SM TSRA OVC035CB=

USA.gov is the U.S. government's official web portal to all federal, state and local government web resources and services.